Terminal Aerodrome Forecast
Issued by NWS Jacksonville, FL

Home | Current Version | Previous Version | Text Only | Print | Product List | Glossary On
Versions: 1 2 3 4 5 6 7 8 9 10 11 12 13
000
FTUS42 KJAX 301720
TAFSSI
TAF
KSSI 301720Z 3018/3118 13007KT P6SM VCSH OVC060
     FM310300 18005KT P6SM OVC060
     FM310900 20006KT P6SM VCTS OVC060CB=

USA.gov is the U.S. government's official web portal to all federal, state and local government web resources and services.